Time;durP1;ratioP1;P1;durP2;ratioP2;P2;SDS_P1;SDS_P2;PMS_P1;PMS_P2;Temp;Humidity;BMP_temperature;BMP_pressure;BME280_temperature;BME280_humidity;BME280_pressure;Samples;Min_cycle;Max_cycle;Signal;HPM_P1;HPM_P2
2021/12/25 00:00:15;;;;;;;26.88;4.65;;;10.40;78.50;;;;;;5100466;28;20038;-52
2021/12/25 00:02:41;;;;;;;16.05;3.30;;;10.40;78.50;;;;;;5098521;28;20020;-50
2021/12/25 00:05:08;;;;;;;23.02;4.00;;;10.30;78.50;;;;;;5100329;28;20115;-53
2021/12/25 00:07:34;;;;;;;15.43;3.50;;;10.30;78.50;;;;;;5098717;28;20035;-52
2021/12/25 00:10:00;;;;;;;17.08;4.50;;;10.30;78.50;;;;;;5099556;28;20035;-54
2021/12/25 00:12:27;;;;;;;21.15;4.18;;;10.20;78.50;;;;;;5099419;28;20012;-52
2021/12/25 00:14:54;;;;;;;21.08;4.43;;;10.20;78.60;;;;;;5100359;28;20024;-51
2021/12/25 00:17:20;;;;;;;16.25;3.90;;;10.10;78.50;;;;;;5100081;28;20035;-55
2021/12/25 00:19:46;;;;;;;19.48;3.95;;;10.10;78.50;;;;;;5099877;28;20048;-54
2021/12/25 00:22:11;;;;;;;22.58;4.60;;;10.10;78.50;;;;;;5100367;28;20352;-53
2021/12/25 00:24:42;;;;;;;14.07;4.70;;;10.00;78.60;;;;;;5099738;28;20399;-52
2021/12/25 00:27:33;;;;;;;16.25;4.57;;;10.00;78.50;;;;;;5099946;28;20048;-51
2021/12/25 00:32:52;;;;;;;24.98;4.80;;;9.90;78.60;;;;;;5099693;28;20111;-53
2021/12/25 00:35:18;;;;;;;18.75;3.88;;;9.90;78.60;;;;;;5099841;28;20032;-51
2021/12/25 00:37:45;;;;;;;24.52;3.92;;;9.90;78.60;;;;;;5099831;28;20024;-51
2021/12/25 00:40:11;;;;;;;18.00;4.22;;;9.90;78.60;;;;;;5099582;28;20020;-53
2021/12/25 00:42:37;;;;;;;20.02;4.38;;;9.90;78.70;;;;;;5099428;28;20056;-54
2021/12/25 00:45:04;;;;;;;23.83;5.60;;;9.90;78.60;;;;;;5098230;28;20055;-52
2021/12/25 00:47:30;;;;;;;18.83;3.88;;;10.00;78.90;;;;;;5099689;28;21017;-50
2021/12/25 00:49:55;;;;;;;20.38;4.65;;;10.00;78.90;;;;;;5099710;28;20086;-52
2021/12/25 00:52:21;;;;;;;19.35;4.50;;;10.00;78.90;;;;;;5099499;28;20028;-52
2021/12/25 00:54:47;;;;;;;21.20;4.78;;;10.10;79.10;;;;;;5099375;28;20090;-52
2021/12/25 00:57:13;;;;;;;19.92;3.47;;;10.20;79.10;;;;;;5099332;28;20418;-54
2021/12/25 00:59:38;;;;;;;26.48;3.83;;;10.20;79.20;;;;;;5099231;28;20016;-51
2021/12/25 01:02:04;;;;;;;27.23;3.58;;;10.30;79.50;;;;;;5095073;28;20046;-51
2021/12/25 01:04:30;;;;;;;21.73;4.07;;;10.40;79.30;;;;;;5099225;28;20047;-52
2021/12/25 01:06:56;;;;;;;20.95;3.58;;;10.40;79.10;;;;;;5099205;28;20063;-52
2021/12/25 01:09:22;;;;;;;21.98;3.80;;;10.50;79.30;;;;;;5099058;28;20024;-52
2021/12/25 01:11:50;;;;;;;19.25;3.60;;;10.50;79.30;;;;;;5099152;28;20088;-53
2021/12/25 01:14:28;;;;;;;24.58;3.38;;;10.60;79.30;;;;;;5099174;28;20024;-54
2021/12/25 01:17:20;;;;;;;18.65;3.95;;;10.60;79.40;;;;;;5090154;28;20110;-54
2021/12/25 01:49:13;;;;;;;27.15;4.63;;;11.00;80.00;;;;;;5096748;28;20043;-51
2021/12/25 01:51:39;;;;;;;21.90;3.53;;;11.00;79.90;;;;;;5097307;28;20069;-53
2021/12/25 01:54:05;;;;;;;18.00;2.78;;;11.00;80.10;;;;;;5098076;28;20103;-57
2021/12/25 01:56:31;;;;;;;17.50;3.50;;;11.10;80.10;;;;;;5098119;28;20019;-53
2021/12/25 01:58:57;;;;;;;23.98;4.72;;;11.10;80.40;;;;;;5097159;28;20086;-58
2021/12/25 02:01:22;;;;;;;28.90;4.60;;;11.10;80.30;;;;;;5097177;28;20042;-56
2021/12/25 02:03:48;;;;;;;22.98;4.07;;;11.10;80.10;;;;;;5097620;28;20291;-58
2021/12/25 02:06:14;;;;;;;24.83;4.75;;;11.10;80.10;;;;;;5097818;28;20127;-55
2021/12/25 02:08:42;;;;;;;25.40;4.75;;;11.10;80.10;;;;;;5097460;28;20035;-58
2021/12/25 02:11:16;;;;;;;22.50;4.72;;;11.10;80.40;;;;;;5097772;28;20012;-58
2021/12/25 02:13:43;;;;;;;24.38;4.70;;;11.10;79.80;;;;;;5097796;28;20445;-58
2021/12/25 02:16:16;;;;;;;29.95;5.47;;;11.10;80.00;;;;;;5097125;28;20031;-57
2021/12/25 02:19:09;;;;;;;24.55;4.05;;;11.10;80.10;;;;;;5097581;28;20024;-51
2021/12/25 02:21:37;;;;;;;29.58;5.68;;;11.10;80.10;;;;;;5097070;28;20508;-55
2021/12/25 02:24:09;;;;;;;20.98;4.78;;;11.10;80.20;;;;;;5097125;28;20020;-56
2021/12/25 02:26:37;;;;;;;27.70;4.82;;;11.10;80.00;;;;;;5097130;28;20085;-58
2021/12/25 02:29:03;;;;;;;20.50;4.85;;;11.00;80.10;;;;;;5096777;28;20028;-53
2021/12/25 02:31:29;;;;;;;24.30;4.35;;;11.00;80.00;;;;;;5097440;28;20043;-57
2021/12/25 02:33:55;;;;;;;19.90;3.60;;;11.00;79.90;;;;;;5102720;28;20017;-57
2021/12/25 02:36:21;;;;;;;25.67;4.38;;;11.00;79.80;;;;;;5103736;28;20043;-58
2021/12/25 02:38:50;;;;;;;26.65;5.00;;;11.00;79.70;;;;;;5104508;28;20028;-59
2021/12/25 02:41:17;;;;;;;21.85;4.30;;;11.00;80.00;;;;;;5103813;28;20046;-54
2021/12/25 02:43:45;;;;;;;25.77;4.88;;;11.00;79.90;;;;;;5104471;28;20027;-57
2021/12/25 02:46:12;;;;;;;23.13;4.30;;;11.00;80.00;;;;;;5104366;28;20059;-56
2021/12/25 02:48:40;;;;;;;28.33;4.95;;;11.00;80.00;;;;;;5104062;28;20024;-58
2021/12/25 02:51:07;;;;;;;27.77;5.65;;;11.00;80.00;;;;;;5104106;28;20028;-58
2021/12/25 02:53:34;;;;;;;25.00;4.28;;;11.00;80.10;;;;;;5103706;28;20020;-58
2021/12/25 02:56:00;;;;;;;23.88;3.63;;;11.00;80.10;;;;;;5103807;28;20162;-58
2021/12/25 02:58:26;;;;;;;25.88;5.43;;;11.00;80.00;;;;;;5103551;28;20030;-56
2021/12/25 03:00:58;;;;;;;28.80;4.43;;;11.00;80.00;;;;;;5104551;28;20028;-57
2021/12/25 03:03:24;;;;;;;24.35;3.95;;;11.00;79.80;;;;;;5104340;28;20099;-57
2021/12/25 03:05:51;;;;;;;22.30;4.50;;;11.00;79.90;;;;;;5103948;28;20062;-58
2021/12/25 03:08:18;;;;;;;21.25;4.45;;;11.00;80.00;;;;;;5103870;28;20050;-57
2021/12/25 03:10:45;;;;;;;38.58;4.93;;;11.00;80.20;;;;;;5103856;28;20024;-57
2021/12/25 03:15:47;;;;;;;24.50;4.50;;;11.00;80.00;;;;;;5104019;28;20028;-58
2021/12/25 03:18:21;;;;;;;27.77;4.22;;;10.90;80.00;;;;;;5104165;28;20071;-53
2021/12/25 03:20:55;;;;;;;25.33;4.85;;;10.90;80.00;;;;;;5103798;28;20534;-59
2021/12/25 03:23:29;;;;;;;17.13;3.42;;;10.90;79.80;;;;;;5103545;28;20036;-58
2021/12/25 03:25:57;;;;;;;20.65;3.75;;;10.90;79.90;;;;;;5104085;28;20020;-55
2021/12/25 03:28:29;;;;;;;25.50;4.03;;;10.90;80.20;;;;;;5103682;28;20035;-56
2021/12/25 03:30:59;;;;;;;23.90;3.97;;;10.90;80.20;;;;;;5103472;28;20386;-56
2021/12/25 03:33:30;;;;;;;25.35;4.82;;;10.90;80.30;;;;;;5104075;28;20440;-58
2021/12/25 03:35:59;;;;;;;27.77;4.57;;;11.00;80.30;;;;;;5103881;28;20053;-55
2021/12/25 03:38:27;;;;;;;29.35;5.60;;;11.00;80.30;;;;;;5104289;28;20020;-52
2021/12/25 03:41:06;;;;;;;29.42;5.03;;;11.00;80.10;;;;;;5102411;28;20046;-58
2021/12/25 03:43:34;;;;;;;22.77;4.50;;;11.00;80.20;;;;;;5103339;28;20077;-53
2021/12/25 03:46:03;;;;;;;27.35;4.95;;;11.00;80.30;;;;;;5099789;28;20028;-56
2021/12/25 03:59:32;;;;;;;27.55;4.85;;;10.90;80.00;;;;;;5101000;28;20043;-58
2021/12/25 04:02:04;;;;;;;27.60;4.72;;;10.90;80.10;;;;;;5100287;28;20032;-56
2021/12/25 04:04:38;;;;;;;26.05;5.05;;;10.80;80.20;;;;;;5100229;28;20063;-55
2021/12/25 04:07:16;;;;;;;22.38;4.22;;;10.80;80.10;;;;;;5099054;28;20051;-57
2021/12/25 04:09:42;;;;;;;28.50;5.78;;;10.80;80.00;;;;;;5099621;28;20079;-58
2021/12/25 04:12:11;;;;;;;18.33;4.72;;;10.80;80.00;;;;;;5099806;28;20023;-56
2021/12/25 04:14:38;;;;;;;18.90;4.43;;;10.80;80.00;;;;;;5099450;28;20027;-57
2021/12/25 04:17:04;;;;;;;32.13;5.25;;;10.80;79.80;;;;;;5099380;28;20016;-57
2021/12/25 04:19:33;;;;;;;23.73;5.15;;;10.80;80.00;;;;;;5099846;28;20479;-57
2021/12/25 04:22:04;;;;;;;26.95;5.45;;;10.70;80.10;;;;;;5099930;28;20046;-58
2021/12/25 04:24:40;;;;;;;22.65;4.10;;;10.70;79.90;;;;;;5099744;28;20032;-54
2021/12/25 04:27:12;;;;;;;27.02;5.80;;;10.80;80.00;;;;;;5099644;28;20052;-53
2021/12/25 04:29:50;;;;;;;21.50;4.07;;;10.70;80.20;;;;;;5099950;28;20036;-56
2021/12/25 04:49:37;;;;;;;19.50;3.40;;;10.80;80.50;;;;;;5074169;28;20415;-57
2021/12/25 05:03:09;;;;;;;24.75;4.03;;;10.80;80.10;;;;;;5099128;28;20134;-57
2021/12/25 05:08:22;;;;;;;24.60;3.65;;;10.80;80.10;;;;;;5096641;28;20044;-49
2021/12/25 05:10:51;;;;;;;21.98;4.18;;;10.80;80.20;;;;;;5099045;28;20015;-57
2021/12/25 05:13:20;;;;;;;18.58;3.67;;;10.80;80.20;;;;;;5099273;28;20031;-57
2021/12/25 05:15:50;;;;;;;15.95;3.08;;;10.90;80.00;;;;;;5098920;28;20024;-57
2021/12/25 05:18:17;;;;;;;15.73;3.30;;;10.90;79.90;;;;;;5098896;28;20103;-54
2021/12/25 05:20:43;;;;;;;19.70;3.45;;;10.90;79.90;;;;;;5098690;28;20098;-54
2021/12/25 05:23:09;;;;;;;18.73;3.13;;;10.90;79.90;;;;;;5098586;28;20032;-58
2021/12/25 05:25:38;;;;;;;19.52;3.53;;;11.00;79.80;;;;;;5098767;28;20024;-54
2021/12/25 05:28:04;;;;;;;19.52;4.35;;;11.00;79.70;;;;;;5098636;28;20055;-52
2021/12/25 05:30:30;;;;;;;18.92;4.60;;;11.00;79.80;;;;;;5099032;28;20019;-53
2021/12/25 05:32:58;;;;;;;14.30;4.03;;;11.00;79.80;;;;;;5098799;28;20051;-52
2021/12/25 05:35:24;;;;;;;21.63;4.00;;;11.00;79.60;;;;;;5098556;28;20016;-52
2021/12/25 05:37:56;;;;;;;24.05;4.70;;;11.00;79.50;;;;;;5098038;28;20047;-56
2021/12/25 05:40:24;;;;;;;16.20;3.92;;;11.00;79.50;;;;;;5098925;28;20487;-57
2021/12/25 05:42:50;;;;;;;19.17;3.78;;;11.00;79.40;;;;;;5097367;28;20044;-57
2021/12/25 05:45:18;;;;;;;20.83;4.95;;;11.00;79.50;;;;;;5098599;28;20025;-50
2021/12/25 05:47:44;;;;;;;19.20;3.72;;;10.90;79.70;;;;;;5079448;28;20040;-48
2021/12/25 05:50:10;;;;;;;21.35;3.20;;;11.00;79.80;;;;;;5098514;28;20044;-56
2021/12/25 05:52:49;;;;;;;28.25;3.70;;;10.90;79.80;;;;;;5098245;28;20020;-54
2021/12/25 05:55:15;;;;;;;18.83;3.00;;;10.90;79.70;;;;;;5098484;28;20024;-50
2021/12/25 05:57:41;;;;;;;14.73;3.22;;;10.90;79.70;;;;;;5098084;28;20107;-47
2021/12/25 06:00:09;;;;;;;23.02;3.95;;;10.90;79.60;;;;;;5097815;28;20055;-51
2021/12/25 06:02:36;;;;;;;21.75;3.75;;;10.90;79.70;;;;;;5098297;28;20020;-49
2021/12/25 06:05:08;;;;;;;22.25;4.00;;;10.90;79.90;;;;;;5098072;28;20399;-52
2021/12/25 06:07:50;;;;;;;23.25;5.32;;;10.90;80.10;;;;;;5097645;28;20422;-49
2021/12/25 06:10:16;;;;;;;19.85;4.05;;;10.90;80.00;;;;;;5097729;28;20066;-52
2021/12/25 06:12:44;;;;;;;19.58;4.15;;;10.90;79.90;;;;;;5097850;28;20491;-49
2021/12/25 06:15:18;;;;;;;27.65;5.15;;;10.90;79.90;;;;;;5098535;28;20069;-53
2021/12/25 06:17:50;;;;;;;21.65;4.25;;;10.90;80.00;;;;;;5097940;28;20024;-46
2021/12/25 06:20:19;;;;;;;19.73;4.57;;;10.90;80.00;;;;;;5097575;28;20050;-50
2021/12/25 06:22:51;;;;;;;20.00;4.68;;;10.90;79.90;;;;;;5098293;28;20020;-48
2021/12/25 06:25:19;;;;;;;17.38;4.28;;;10.80;79.90;;;;;;5098092;28;20024;-46
2021/12/25 06:27:49;;;;;;;19.92;4.05;;;10.80;80.10;;;;;;5097671;28;20103;-48
2021/12/25 06:30:15;;;;;;;17.13;4.13;;;10.80;79.90;;;;;;5097724;28;20024;-47
2021/12/25 06:32:43;;;;;;;18.38;4.18;;;10.80;79.90;;;;;;5096659;28;20016;-47
2021/12/25 06:35:09;;;;;;;18.58;4.00;;;10.80;80.20;;;;;;5097918;28;20467;-46
2021/12/25 06:37:48;;;;;;;19.40;3.95;;;10.90;80.30;;;;;;5097867;28;20153;-56
2021/12/25 06:40:18;;;;;;;20.25;3.83;;;10.90;80.20;;;;;;5097445;28;20092;-53
2021/12/25 06:42:45;;;;;;;16.70;3.50;;;10.90;80.30;;;;;;5097849;28;20105;-56
2021/12/25 06:45:17;;;;;;;12.02;3.25;;;10.90;80.30;;;;;;5097819;28;20024;-51
2021/12/25 06:47:45;;;;;;;19.88;3.65;;;10.90;80.30;;;;;;5097710;28;20024;-52
2021/12/25 06:50:18;;;;;;;19.48;3.90;;;10.90;80.20;;;;;;5097908;28;20103;-54
2021/12/25 06:52:45;;;;;;;19.25;3.80;;;10.90;80.20;;;;;;5097615;28;20487;-54
2021/12/25 06:55:13;;;;;;;24.90;3.97;;;10.90;80.00;;;;;;5095723;28;20028;-53
2021/12/25 06:57:47;;;;;;;18.20;4.25;;;10.90;80.00;;;;;;5097759;28;20024;-52
2021/12/25 07:00:13;;;;;;;;;;;10.90;79.90;;;;;;5098418;28;20031;-51
2021/12/25 07:02:45;;;;;;;15.75;3.25;;;10.90;79.80;;;;;;5097427;28;20275;-54
2021/12/25 07:05:11;;;;;;;18.85;3.40;;;10.90;79.70;;;;;;5096729;28;20534;-53
2021/12/25 07:07:37;;;;;;;19.90;3.47;;;10.90;79.60;;;;;;5097364;28;20108;-52
2021/12/25 07:10:04;;;;;;;14.93;3.67;;;10.90;79.80;;;;;;5097518;28;20103;-54
2021/12/25 07:12:35;;;;;;;17.63;3.80;;;10.80;79.80;;;;;;5096840;28;20359;-55
2021/12/25 07:15:06;;;;;;;19.67;3.63;;;10.80;79.90;;;;;;5096966;28;20502;-58
2021/12/25 07:17:33;;;;;;;18.20;3.60;;;10.80;79.90;;;;;;5095305;28;20023;-58
2021/12/25 07:19:59;;;;;;;16.42;3.10;;;10.80;79.90;;;;;;5098644;28;20040;-58
2021/12/25 07:22:26;;;;;;;17.67;3.70;;;10.90;79.90;;;;;;5101420;28;20031;-58
2021/12/25 07:24:53;;;;;;;20.23;3.95;;;10.90;79.80;;;;;;5101173;28;20030;-57
2021/12/25 07:27:19;;;;;;;20.35;4.65;;;10.90;79.90;;;;;;5101326;28;20020;-57
2021/12/25 07:29:48;;;;;;;26.58;4.72;;;10.90;79.90;;;;;;5100906;28;20479;-54
2021/12/25 07:32:13;;;;;;;18.00;4.40;;;10.90;79.90;;;;;;5096494;28;20563;-58
2021/12/25 07:34:40;;;;;;;19.40;4.07;;;10.90;79.80;;;;;;5101036;28;20433;-58
2021/12/25 07:37:06;;;;;;;22.08;3.70;;;10.90;79.80;;;;;;5100307;28;20032;-57
2021/12/25 07:39:33;;;;;;;19.15;3.83;;;10.90;79.90;;;;;;5100824;28;20042;-58
2021/12/25 07:41:59;;;;;;;16.45;4.32;;;10.90;79.90;;;;;;5099295;28;20028;-58
2021/12/25 07:44:25;;;;;;;20.27;4.55;;;11.00;80.00;;;;;;5100447;28;20024;-58
2021/12/25 07:46:51;;;;;;;21.98;3.80;;;11.00;79.90;;;;;;5100669;28;20421;-58
2021/12/25 07:49:20;;;;;;;17.17;3.58;;;11.00;79.80;;;;;;5100945;28;20028;-58
2021/12/25 07:51:47;;;;;;;22.95;4.57;;;11.00;79.70;;;;;;5099974;28;20020;-58
2021/12/25 07:54:13;;;;;;;19.75;4.25;;;11.00;79.70;;;;;;5099625;28;20030;-58
2021/12/25 07:56:39;;;;;;;20.83;3.65;;;11.00;79.90;;;;;;5098827;28;20021;-58
2021/12/25 07:59:06;;;;;;;23.13;4.20;;;11.00;79.70;;;;;;5098403;28;20055;-58
2021/12/25 08:01:35;;;;;;;19.58;3.80;;;10.90;79.70;;;;;;5098038;28;20070;-58
2021/12/25 08:04:04;;;;;;;16.95;3.75;;;10.90;79.70;;;;;;5098361;28;20089;-56
2021/12/25 08:06:33;;;;;;;16.05;4.18;;;10.90;79.70;;;;;;5098171;28;20081;-58
2021/12/25 08:09:01;;;;;;;18.60;3.15;;;10.90;79.70;;;;;;5093745;28;20028;-56
2021/12/25 08:11:28;;;;;;;20.65;4.90;;;10.90;79.60;;;;;;5096008;28;20099;-58
2021/12/25 08:13:54;;;;;;;18.67;4.38;;;11.00;79.70;;;;;;5098489;28;20027;-58
2021/12/25 08:16:20;;;;;;;17.58;3.35;;;10.90;79.70;;;;;;5098796;28;20042;-58
2021/12/25 08:18:46;;;;;;;27.50;4.35;;;11.00;79.80;;;;;;5080478;28;20472;-58
2021/12/25 08:21:13;;;;;;;24.15;3.83;;;11.00;79.80;;;;;;5099167;28;20579;-58
2021/12/25 08:23:40;;;;;;;15.85;3.65;;;11.00;79.60;;;;;;5099365;28;20139;-58
2021/12/25 08:26:07;;;;;;;18.83;4.68;;;11.00;79.50;;;;;;5099257;28;20059;-58
2021/12/25 08:28:33;;;;;;;23.80;4.35;;;11.00;79.70;;;;;;5097348;28;20032;-56
2021/12/25 08:30:59;;;;;;;18.35;3.80;;;11.00;79.70;;;;;;5098132;28;20119;-57
2021/12/25 08:33:25;;;;;;;18.40;4.63;;;11.00;79.70;;;;;;5097290;28;20036;-58
2021/12/25 08:35:51;;;;;;;16.55;4.05;;;11.10;79.70;;;;;;5096788;28;20020;-58
2021/12/25 08:38:17;;;;;;;20.15;4.40;;;11.00;79.50;;;;;;5098808;28;20032;-57
2021/12/25 08:40:44;;;;;;;15.30;3.42;;;11.10;79.50;;;;;;5099007;28;20020;-56
2021/12/25 08:43:10;;;;;;;24.70;4.05;;;11.10;79.50;;;;;;5096564;28;20107;-57
2021/12/25 08:45:49;;;;;;;21.42;4.63;;;11.10;79.50;;;;;;5098879;28;20023;-58
2021/12/25 08:48:21;;;;;;;18.92;4.03;;;11.10;79.50;;;;;;5097946;28;20427;-58
2021/12/25 08:50:51;;;;;;;17.88;3.63;;;11.10;79.60;;;;;;5095964;28;20390;-58
2021/12/25 08:53:19;;;;;;;14.93;2.80;;;11.10;79.50;;;;;;5098857;28;20028;-59
2021/12/25 08:55:49;;;;;;;14.15;3.30;;;11.10;79.50;;;;;;5096737;28;20037;-57
2021/12/25 08:58:19;;;;;;;13.13;2.95;;;11.10;79.50;;;;;;5096269;28;20028;-58
2021/12/25 09:00:56;;;;;;;16.98;3.60;;;11.10;79.40;;;;;;5097069;28;20063;-55
2021/12/25 09:06:16;;;;;;;20.60;4.18;;;11.20;79.40;;;;;;5094357;28;20394;-57
2021/12/25 09:08:41;;;;;;;16.63;3.75;;;11.20;79.30;;;;;;5096304;28;20062;-58
2021/12/25 09:11:07;;;;;;;17.15;3.53;;;11.20;79.30;;;;;;5095996;28;20016;-57
2021/12/25 09:13:33;;;;;;;17.65;4.10;;;11.30;79.20;;;;;;5094540;28;20066;-56
2021/12/25 09:15:59;;;;;;;16.75;3.53;;;11.20;79.20;;;;;;5095304;28;20017;-55
2021/12/25 09:18:24;;;;;;;15.38;3.00;;;11.30;79.20;;;;;;5096579;28;20039;-58
2021/12/25 09:20:50;;;;;;;17.15;2.88;;;11.20;79.10;;;;;;5097431;28;20462;-58
2021/12/25 09:23:16;;;;;;;11.40;3.30;;;11.30;79.10;;;;;;5098046;28;20052;-57
2021/12/25 09:25:42;;;;;;;15.77;2.95;;;11.30;79.00;;;;;;5098327;28;20020;-57
2021/12/25 09:28:08;;;;;;;13.68;3.30;;;11.30;78.90;;;;;;5098809;28;20453;-58
2021/12/25 09:30:36;;;;;;;18.45;3.67;;;11.40;79.20;;;;;;5098627;28;20016;-58
2021/12/25 09:33:02;;;;;;;12.82;3.03;;;11.60;79.20;;;;;;5098316;28;20429;-57
2021/12/25 09:35:28;;;;;;;13.45;2.30;;;11.70;79.00;;;;;;5098570;28;20475;-56
2021/12/25 09:37:55;;;;;;;13.13;3.83;;;11.90;78.90;;;;;;5098355;28;20044;-55
2021/12/25 09:40:21;;;;;;;13.18;3.60;;;12.00;78.50;;;;;;5097570;28;20020;-58
2021/12/25 09:42:46;;;;;;;19.02;3.10;;;12.00;78.30;;;;;;5097342;28;20031;-58
2021/12/25 09:45:13;;;;;;;11.50;3.60;;;12.00;78.10;;;;;;5098237;28;20077;-58
2021/12/25 09:47:40;;;;;;;17.17;3.78;;;12.00;78.20;;;;;;5098091;28;20824;-59
2021/12/25 09:50:06;;;;;;;17.15;3.38;;;12.00;78.30;;;;;;5098165;28;20012;-57
2021/12/25 09:52:32;;;;;;;18.88;4.47;;;12.00;78.20;;;;;;5098352;28;20042;-57
2021/12/25 09:54:58;;;;;;;18.30;3.50;;;11.90;78.10;;;;;;5097886;28;20103;-57
2021/12/25 09:57:24;;;;;;;22.05;3.72;;;11.90;78.30;;;;;;5097040;28;20077;-56
2021/12/25 09:59:52;;;;;;;19.08;3.80;;;11.80;78.40;;;;;;5097928;28;20028;-56
2021/12/25 10:02:18;;;;;;;17.02;4.07;;;11.80;78.40;;;;;;5098009;28;20028;-58
2021/12/25 10:04:50;;;;;;;17.35;3.67;;;11.80;78.50;;;;;;5097955;28;20045;-58
2021/12/25 10:07:22;;;;;;;13.95;4.10;;;11.70;78.50;;;;;;5098030;28;20024;-58
2021/12/25 10:10:07;;;;;;;16.15;4.10;;;11.80;78.60;;;;;;5097893;28;20035;-58
2021/12/25 10:12:43;;;;;;;17.33;5.35;;;11.80;78.60;;;;;;5097672;28;20513;-58
2021/12/25 10:15:12;;;;;;;15.23;4.47;;;11.80;78.60;;;;;;5097830;28;20164;-58
2021/12/25 10:17:51;;;;;;;17.40;4.95;;;11.80;78.60;;;;;;5097771;28;20114;-55
2021/12/25 10:20:25;;;;;;;18.45;5.38;;;11.80;78.50;;;;;;5097469;28;20071;-56
2021/12/25 10:22:56;;;;;;;18.13;5.30;;;11.90;78.50;;;;;;5097888;28;20094;-58
2021/12/25 10:25:22;;;;;;;20.88;5.38;;;11.90;79.00;;;;;;5097612;28;20028;-57
2021/12/25 10:27:55;;;;;;;17.02;5.22;;;11.90;78.60;;;;;;5097556;28;20024;-58
2021/12/25 10:30:21;;;;;;;17.98;6.32;;;11.90;78.50;;;;;;5097891;28;20016;-58
2021/12/25 10:32:48;;;;;;;19.33;5.60;;;12.00;78.50;;;;;;5097846;28;20021;-58
2021/12/25 10:35:21;;;;;;;21.38;6.22;;;12.00;78.60;;;;;;5097516;28;20050;-58
2021/12/25 10:37:50;;;;;;;25.65;7.25;;;12.10;78.60;;;;;;5097318;28;20519;-58
2021/12/25 10:40:25;;;;;;;24.25;7.68;;;12.10;78.50;;;;;;5097399;28;20021;-57
2021/12/25 10:42:52;;;;;;;23.55;6.57;;;12.20;78.40;;;;;;5097467;28;20043;-58
2021/12/25 10:45:18;;;;;;;22.42;6.55;;;12.10;78.40;;;;;;5097385;28;20027;-57
2021/12/25 10:47:43;;;;;;;23.65;7.60;;;12.10;78.40;;;;;;5097474;28;20016;-58
2021/12/25 10:50:15;;;;;;;24.88;7.45;;;12.10;78.40;;;;;;5097485;28;20122;-56
2021/12/25 10:52:47;;;;;;;25.95;6.97;;;12.10;78.40;;;;;;5097185;28;20483;-58
2021/12/25 10:55:23;;;;;;;18.60;6.07;;;12.10;78.30;;;;;;5101035;28;20020;-58
2021/12/25 10:57:58;;;;;;;20.80;7.68;;;12.10;78.20;;;;;;5101353;28;20019;-58
2021/12/25 11:00:24;;;;;;;24.98;6.85;;;12.00;78.20;;;;;;5101365;28;20051;-56
2021/12/25 11:02:58;;;;;;;25.05;7.25;;;12.00;78.30;;;;;;5101232;28;20024;-58
2021/12/25 11:05:33;;;;;;;22.60;7.38;;;12.00;78.20;;;;;;5101614;28;20017;-58
2021/12/25 11:08:23;;;;;;;25.20;7.25;;;11.90;78.10;;;;;;5101440;28;20441;-54
2021/12/25 11:11:21;;;;;;;23.20;7.70;;;11.90;78.20;;;;;;5101312;28;20021;-57
2021/12/25 11:13:51;;;;;;;25.23;8.02;;;12.00;78.50;;;;;;5067153;28;20484;-56
2021/12/25 11:16:27;;;;;;;24.92;7.85;;;11.90;78.40;;;;;;5100950;28;20027;-57
2021/12/25 11:19:05;;;;;;;18.98;7.55;;;12.00;78.50;;;;;;5100838;28;20063;-57
2021/12/25 11:21:56;;;;;;;19.70;7.18;;;12.00;78.60;;;;;;5101381;28;20045;-57
2021/12/25 11:24:32;;;;;;;25.17;7.72;;;11.90;78.50;;;;;;5101167;28;20035;-58
2021/12/25 11:27:04;;;;;;;25.30;7.45;;;12.00;78.50;;;;;;5100854;28;20031;-58
2021/12/25 11:29:32;;;;;;;22.60;7.13;;;11.90;78.50;;;;;;5100508;28;20144;-58
2021/12/25 11:32:00;;;;;;;25.38;7.65;;;11.90;78.50;;;;;;5100747;28;20017;-56
2021/12/25 11:34:27;;;;;;;22.67;7.55;;;11.90;78.50;;;;;;5100892;28;20028;-58
2021/12/25 11:36:54;;;;;;;21.02;6.82;;;11.90;78.50;;;;;;5100682;28;20023;-56
2021/12/25 11:39:24;;;;;;;18.85;6.57;;;11.90;78.40;;;;;;5100763;28;20024;-54
2021/12/25 11:41:54;;;;;;;29.23;7.35;;;11.90;78.50;;;;;;5100568;28;20426;-56
2021/12/25 11:44:39;;;;;;;17.77;6.78;;;11.90;78.60;;;;;;5100513;28;20032;-57
2021/12/25 11:47:07;;;;;;;25.50;6.70;;;11.90;78.60;;;;;;5100033;28;20035;-58
2021/12/25 11:49:50;;;;;;;26.58;7.28;;;11.90;78.50;;;;;;5100487;28;20494;-57
2021/12/25 11:52:24;;;;;;;23.88;6.80;;;11.90;78.50;;;;;;5100500;28;20020;-57
2021/12/25 11:58:18;;;;;;;23.30;7.35;;;11.80;78.60;;;;;;5100625;28;20031;-54
2021/12/25 12:00:50;;;;;;;26.10;7.90;;;11.80;78.70;;;;;;5100385;28;20032;-57
2021/12/25 12:03:46;;;;;;;23.40;7.20;;;11.80;78.70;;;;;;5100144;28;20016;-58
2021/12/25 12:06:14;;;;;;;19.13;6.15;;;11.80;78.70;;;;;;5099030;28;20039;-57
2021/12/25 12:09:11;;;;;;;19.25;5.90;;;11.80;78.70;;;;;;5099810;28;20047;-57
2021/12/25 12:11:40;;;;;;;20.52;6.25;;;11.80;78.50;;;;;;5087291;28;20028;-58
2021/12/25 12:14:13;;;;;;;25.45;7.20;;;11.80;78.60;;;;;;5099951;28;20022;-57
2021/12/25 12:16:42;;;;;;;20.70;6.27;;;11.80;78.70;;;;;;5100149;28;20077;-58
2021/12/25 12:19:48;;;;;;;20.17;6.43;;;11.80;78.60;;;;;;5099403;28;20396;-57
2021/12/25 12:27:46;;;;;;;26.48;8.07;;;11.70;78.40;;;;;;5077459;28;20364;-58
2021/12/25 12:30:34;;;;;;;23.73;7.32;;;11.60;78.40;;;;;;5099710;28;20039;-57
2021/12/25 12:33:23;;;;;;;22.60;7.07;;;11.60;78.50;;;;;;5099486;28;20017;-56
2021/12/25 12:35:50;;;;;;;27.02;8.10;;;11.60;78.70;;;;;;5091255;28;20036;-58
2021/12/25 12:38:38;;;;;;;21.98;7.55;;;11.50;78.90;;;;;;5099613;28;20052;-58
2021/12/25 12:41:22;;;;;;;20.80;7.47;;;11.50;79.10;;;;;;5099173;28;20032;-56
2021/12/25 12:43:58;;;;;;;28.02;7.57;;;11.50;79.30;;;;;;5099485;28;20020;-57
2021/12/25 12:46:47;;;;;;;28.10;8.77;;;11.50;79.30;;;;;;5099054;28;20433;-58
2021/12/25 12:49:16;;;;;;;25.95;8.18;;;11.50;79.50;;;;;;5089588;28;20426;-56
2021/12/25 12:51:42;;;;;;;26.92;9.25;;;11.50;79.60;;;;;;5099422;28;20032;-58
2021/12/25 12:54:08;;;;;;;21.30;9.00;;;11.50;79.70;;;;;;5099483;28;20016;-58
2021/12/25 12:56:36;;;;;;;22.92;8.13;;;11.50;79.80;;;;;;5099118;28;20471;-58
2021/12/25 12:59:04;;;;;;;27.38;9.10;;;11.60;79.70;;;;;;5099221;28;20040;-56
2021/12/25 13:01:29;;;;;;;25.85;8.32;;;11.60;79.70;;;;;;5099145;28;20491;-56
2021/12/25 13:03:57;;;;;;;26.10;8.82;;;11.70;79.60;;;;;;5098883;28;20028;-58
2021/12/25 13:06:29;;;;;;;23.33;7.68;;;11.70;79.60;;;;;;5099172;28;20057;-58
2021/12/25 13:09:00;;;;;;;21.65;7.10;;;11.70;79.70;;;;;;5099099;28;20035;-58
2021/12/25 13:11:31;;;;;;;25.42;7.95;;;11.70;79.60;;;;;;5098645;28;20498;-58
2021/12/25 13:14:00;;;;;;;26.73;6.90;;;11.70;79.50;;;;;;5097287;28;20020;-57
2021/12/25 13:16:37;;;;;;;27.38;6.57;;;11.70;79.40;;;;;;5098589;28;20109;-56
2021/12/25 13:19:05;;;;;;;23.55;6.22;;;11.70;79.40;;;;;;5098554;28;20036;-58
2021/12/25 13:21:33;;;;;;;22.80;7.65;;;11.70;79.40;;;;;;5098434;28;20032;-56
2021/12/25 13:24:14;;;;;;;23.92;6.95;;;11.70;79.30;;;;;;5098769;28;20112;-56
2021/12/25 13:26:47;;;;;;;20.45;6.35;;;11.60;79.40;;;;;;5098307;28;20577;-56
2021/12/25 13:29:18;;;;;;;17.30;4.40;;;11.60;79.30;;;;;;5098476;28;20020;-57
2021/12/25 13:31:44;;;;;;;16.23;4.32;;;11.60;79.20;;;;;;5098601;28;20103;-57
2021/12/25 13:34:20;;;;;;;14.02;3.88;;;11.60;79.30;;;;;;5098755;28;20103;-56
2021/12/25 13:36:54;;;;;;;16.38;3.05;;;11.60;79.20;;;;;;5098158;28;20030;-57
2021/12/25 13:39:27;;;;;;;16.15;3.63;;;11.60;79.10;;;;;;5098169;28;20552;-58
2021/12/25 13:41:55;;;;;;;14.98;4.20;;;11.60;79.10;;;;;;5098661;28;20063;-57
2021/12/25 13:44:35;;;;;;;25.52;5.18;;;11.60;79.10;;;;;;5098107;28;20032;-56
2021/12/25 13:47:15;;;;;;;23.75;4.47;;;11.60;79.20;;;;;;5098465;28;20028;-58
2021/12/25 13:49:44;;;;;;;15.68;3.65;;;11.60;79.40;;;;;;5098256;28;20031;-56
2021/12/25 13:52:58;;;;;;;17.23;4.13;;;11.60;79.40;;;;;;5098326;28;20035;-55
2021/12/25 13:55:27;;;;;;;11.88;3.53;;;11.70;79.40;;;;;;5086394;28;20056;-56
2021/12/25 13:57:57;;;;;;;12.32;3.25;;;11.70;79.20;;;;;;5098242;28;20398;-58
2021/12/25 14:00:36;;;;;;;15.48;3.70;;;11.70;79.10;;;;;;5097963;28;20024;-56
2021/12/25 14:03:11;;;;;;;17.30;3.72;;;11.70;79.00;;;;;;5097900;28;20149;-57
2021/12/25 14:05:39;;;;;;;12.15;2.22;;;11.70;79.20;;;;;;5098112;28;20020;-57
2021/12/25 14:08:06;;;;;;;13.02;3.00;;;11.80;79.30;;;;;;5097951;28;20024;-56
2021/12/25 14:10:34;;;;;;;7.68;2.67;;;11.80;79.20;;;;;;5098167;28;20176;-58
2021/12/25 14:13:03;;;;;;;11.88;2.67;;;11.90;79.10;;;;;;5097733;28;20353;-58
2021/12/25 14:15:34;;;;;;;13.77;3.10;;;11.90;79.30;;;;;;5098040;28;20043;-57
2021/12/25 14:18:06;;;;;;;18.67;3.10;;;11.90;79.40;;;;;;5097671;28;20493;-58
2021/12/25 14:20:35;;;;;;;14.30;4.00;;;12.00;79.40;;;;;;5097316;28;20062;-57